Aeroporto :
LOGIN :

Iscrizione | Disclaimer

   EN    FR    IT 

 










Sommario :    VFR   VFR Marginale   IFR   IFR Intensivo   IFR Molto Intensivo
Visibilità : 
Base nubi : 
>= 8 km
>= 3000ft
5 / 8 km
1000 / 3000 ft
1500m / 5 km
500 / 1000 ft
800 / 1500m
200 / 500 ft
< 800m
< 200 ft
Simboli :   Temporali  Nebbia  Neve Forte  Precipitazioni Forti  Vento > 20 kt
SIGMETs :   Varie  Temporali  Ghiacco  Turbolenza  Onda orograficha  Ceneri Vulcaniche






- Altitudine del aeroporto : 1535 ft
- Codice IATA : OUD


GMFO - Ouja Angads

ULTIMO METAR :
  • 250230Z 33005KT 270V010 6000 BKN003 16/16 Q1023 NOSIG

METARs OBSOLETI :
  • 250200Z VRB03KT 6000 BKN003 16/15 Q1024 NOSIG
  • 250130Z 31003KT 230V010 6000 SCT010 16/15 Q1024 NOSIG
  • 250100Z VRB03KT 6000 SCT010 16/15 Q1024 NOSIG
  • 250030Z VRB02KT 6000 SCT007 15/14 Q1024 NOSIG
  • 250000Z VRB01KT 6000 SCT007 16/15 Q1024 NOSIG

TAF TAF GMFO
Valido dal 25 a 00 ore il 26 a 06 ore UTC


242300Z 2500/2606 VRB03KT 7000 NSC
PROB30
TEMPO 2502/2506 3000 BR SCT003



MetMap, La meteo Aeronautica in un colpo d'occhio ! - Copyright ORBIFLY Dicembre 2007 - Disclaimer

ORBIFLY MET'MAP TEAM :

Programmazione e sviluppo : Alexandra Zaïnal
Concezione : Baudouin d'Aumeries
Aiuto per la programmazione : Marc-Olivier Méhu
Supporto tecnico e logistico : Manuel Goepfert
Aiuto per la traduzione : Arnaldo La Scala

Contatto : metmap@orbifly.com




FONTI E CREDITI :

   NOAA